sensor_id;sensor_type;location;lat;lon;timestamp;P1;durP1;ratioP1;P2;durP2;ratioP2
68275;SDS011;55106;51.438;-0.098;2022-12-18T00:01:27;44.70;;;16.02;;
68275;SDS011;55106;51.438;-0.098;2022-12-18T00:03:56;48.77;;;16.07;;
68275;SDS011;55106;51.438;-0.098;2022-12-18T00:06:22;41.70;;;16.73;;
68275;SDS011;55106;51.438;-0.098;2022-12-18T00:08:48;44.75;;;16.92;;
68275;SDS011;55106;51.438;-0.098;2022-12-18T00:11:14;49.93;;;16.27;;
68275;SDS011;55106;51.438;-0.098;2022-12-18T00:13:41;50.22;;;18.63;;
68275;SDS011;55106;51.438;-0.098;2022-12-18T00:16:15;44.72;;;15.20;;
68275;SDS011;55106;51.438;-0.098;2022-12-18T00:18:45;44.80;;;15.60;;
68275;SDS011;55106;51.438;-0.098;2022-12-18T00:21:11;45.73;;;15.73;;
68275;SDS011;55106;51.438;-0.098;2022-12-18T00:23:37;45.85;;;16.33;;
68275;SDS011;55106;51.438;-0.098;2022-12-18T00:26:05;46.40;;;16.27;;
68275;SDS011;55106;51.438;-0.098;2022-12-18T00:28:32;43.90;;;15.93;;
68275;SDS011;55106;51.438;-0.098;2022-12-18T00:31:05;49.17;;;16.93;;
68275;SDS011;55106;51.438;-0.098;2022-12-18T00:33:32;49.67;;;17.40;;
68275;SDS011;55106;51.438;-0.098;2022-12-18T00:36:00;50.70;;;17.17;;
68275;SDS011;55106;51.438;-0.098;2022-12-18T00:38:30;49.13;;;17.20;;
68275;SDS011;55106;51.438;-0.098;2022-12-18T00:40:55;48.77;;;16.50;;
68275;SDS011;55106;51.438;-0.098;2022-12-18T00:43:21;48.58;;;17.27;;
68275;SDS011;55106;51.438;-0.098;2022-12-18T00:45:46;49.07;;;17.60;;
68275;SDS011;55106;51.438;-0.098;2022-12-18T00:48:12;50.27;;;17.97;;
68275;SDS011;55106;51.438;-0.098;2022-12-18T00:50:37;52.70;;;17.23;;
68275;SDS011;55106;51.438;-0.098;2022-12-18T00:53:03;44.83;;;16.40;;
68275;SDS011;55106;51.438;-0.098;2022-12-18T00:55:28;48.90;;;16.60;;
68275;SDS011;55106;51.438;-0.098;2022-12-18T00:57:53;47.90;;;16.53;;
68275;SDS011;55106;51.438;-0.098;2022-12-18T01:00:19;48.17;;;17.03;;
68275;SDS011;55106;51.438;-0.098;2022-12-18T01:02:45;49.87;;;17.40;;
68275;SDS011;55106;51.438;-0.098;2022-12-18T01:05:14;55.03;;;18.20;;
68275;SDS011;55106;51.438;-0.098;2022-12-18T01:07:40;47.43;;;16.43;;
68275;SDS011;55106;51.438;-0.098;2022-12-18T01:10:06;50.22;;;17.27;;
68275;SDS011;55106;51.438;-0.098;2022-12-18T01:12:32;50.03;;;17.02;;
68275;SDS011;55106;51.438;-0.098;2022-12-18T01:14:58;47.33;;;15.73;;
68275;SDS011;55106;51.438;-0.098;2022-12-18T01:17:23;53.10;;;17.70;;
68275;SDS011;55106;51.438;-0.098;2022-12-18T01:19:49;48.13;;;16.30;;
68275;SDS011;55106;51.438;-0.098;2022-12-18T01:22:14;46.80;;;17.35;;
68275;SDS011;55106;51.438;-0.098;2022-12-18T01:24:40;48.77;;;16.37;;
68275;SDS011;55106;51.438;-0.098;2022-12-18T01:27:05;49.17;;;16.77;;
68275;SDS011;55106;51.438;-0.098;2022-12-18T01:29:31;50.33;;;16.95;;
68275;SDS011;55106;51.438;-0.098;2022-12-18T01:31:56;50.60;;;16.50;;
68275;SDS011;55106;51.438;-0.098;2022-12-18T01:34:22;47.50;;;15.47;;
68275;SDS011;55106;51.438;-0.098;2022-12-18T01:36:48;48.50;;;16.63;;
68275;SDS011;55106;51.438;-0.098;2022-12-18T01:39:17;51.33;;;16.63;;
68275;SDS011;55106;51.438;-0.098;2022-12-18T01:41:42;47.47;;;15.00;;
68275;SDS011;55106;51.438;-0.098;2022-12-18T01:50:02;45.63;;;15.15;;
68275;SDS011;55106;51.438;-0.098;2022-12-18T01:52:31;39.90;;;13.65;;
68275;SDS011;55106;51.438;-0.098;2022-12-18T01:54:57;46.17;;;15.20;;
68275;SDS011;55106;51.438;-0.098;2022-12-18T01:57:25;44.75;;;15.82;;
68275;SDS011;55106;51.438;-0.098;2022-12-18T01:59:52;47.50;;;17.50;;
68275;SDS011;55106;51.438;-0.098;2022-12-18T02:02:20;44.05;;;15.55;;
68275;SDS011;55106;51.438;-0.098;2022-12-18T02:04:46;45.45;;;15.80;;
68275;SDS011;55106;51.438;-0.098;2022-12-18T02:10:00;47.65;;;15.90;;
68275;SDS011;55106;51.438;-0.098;2022-12-18T02:12:54;43.17;;;15.33;;
68275;SDS011;55106;51.438;-0.098;2022-12-18T02:15:54;48.38;;;17.00;;
68275;SDS011;55106;51.438;-0.098;2022-12-18T02:18:37;39.15;;;14.43;;
68275;SDS011;55106;51.438;-0.098;2022-12-18T02:21:12;35.60;;;12.27;;
68275;SDS011;55106;51.438;-0.098;2022-12-18T02:23:59;40.50;;;12.93;;
68275;SDS011;55106;51.438;-0.098;2022-12-18T02:26:58;36.30;;;13.13;;
68275;SDS011;55106;51.438;-0.098;2022-12-18T02:31:59;36.92;;;12.75;;
68275;SDS011;55106;51.438;-0.098;2022-12-18T02:34:26;39.45;;;12.45;;
68275;SDS011;55106;51.438;-0.098;2022-12-18T02:36:54;42.42;;;14.80;;
68275;SDS011;55106;51.438;-0.098;2022-12-18T02:39:22;39.20;;;11.83;;
68275;SDS011;55106;51.438;-0.098;2022-12-18T02:41:50;43.33;;;13.95;;
68275;SDS011;55106;51.438;-0.098;2022-12-18T02:44:15;40.13;;;12.53;;
68275;SDS011;55106;51.438;-0.098;2022-12-18T02:46:42;34.20;;;12.40;;
68275;SDS011;55106;51.438;-0.098;2022-12-18T02:57:34;36.28;;;13.00;;
68275;SDS011;55106;51.438;-0.098;2022-12-18T03:02:53;39.92;;;14.32;;
68275;SDS011;55106;51.438;-0.098;2022-12-18T03:05:31;41.33;;;13.13;;
68275;SDS011;55106;51.438;-0.098;2022-12-18T03:08:03;44.85;;;16.30;;
68275;SDS011;55106;51.438;-0.098;2022-12-18T03:10:45;49.67;;;17.30;;
68275;SDS011;55106;51.438;-0.098;2022-12-18T03:13:28;50.72;;;16.17;;
68275;SDS011;55106;51.438;-0.098;2022-12-18T03:15:58;44.95;;;15.55;;
68275;SDS011;55106;51.438;-0.098;2022-12-18T03:18:25;46.13;;;15.90;;
68275;SDS011;55106;51.438;-0.098;2022-12-18T03:20:55;45.97;;;15.90;;
68275;SDS011;55106;51.438;-0.098;2022-12-18T03:23:27;45.78;;;14.95;;
68275;SDS011;55106;51.438;-0.098;2022-12-18T03:25:56;46.30;;;15.57;;
68275;SDS011;55106;51.438;-0.098;2022-12-18T03:28:24;46.53;;;16.05;;
68275;SDS011;55106;51.438;-0.098;2022-12-18T03:30:55;51.73;;;15.30;;
68275;SDS011;55106;51.438;-0.098;2022-12-18T03:33:30;42.55;;;14.93;;
68275;SDS011;55106;51.438;-0.098;2022-12-18T03:36:02;43.63;;;15.15;;
68275;SDS011;55106;51.438;-0.098;2022-12-18T03:38:28;45.80;;;14.07;;
68275;SDS011;55106;51.438;-0.098;2022-12-18T03:43:29;43.30;;;14.37;;
68275;SDS011;55106;51.438;-0.098;2022-12-18T03:46:08;41.42;;;14.75;;
68275;SDS011;55106;51.438;-0.098;2022-12-18T03:48:43;43.63;;;14.73;;
68275;SDS011;55106;51.438;-0.098;2022-12-18T03:51:17;41.13;;;14.18;;
68275;SDS011;55106;51.438;-0.098;2022-12-18T03:56:18;37.60;;;13.70;;
68275;SDS011;55106;51.438;-0.098;2022-12-18T03:58:47;37.20;;;13.57;;
68275;SDS011;55106;51.438;-0.098;2022-12-18T04:01:15;38.67;;;15.07;;
68275;SDS011;55106;51.438;-0.098;2022-12-18T04:03:42;35.67;;;13.13;;
68275;SDS011;55106;51.438;-0.098;2022-12-18T04:06:11;33.33;;;13.60;;
68275;SDS011;55106;51.438;-0.098;2022-12-18T04:08:37;39.23;;;12.47;;
68275;SDS011;55106;51.438;-0.098;2022-12-18T04:11:04;35.30;;;13.02;;
68275;SDS011;55106;51.438;-0.098;2022-12-18T04:13:36;39.50;;;12.37;;
68275;SDS011;55106;51.438;-0.098;2022-12-18T04:16:02;32.47;;;12.50;;
68275;SDS011;55106;51.438;-0.098;2022-12-18T04:18:28;38.72;;;13.07;;
68275;SDS011;55106;51.438;-0.098;2022-12-18T04:20:53;33.13;;;10.83;;
68275;SDS011;55106;51.438;-0.098;2022-12-18T04:23:19;36.63;;;11.97;;
68275;SDS011;55106;51.438;-0.098;2022-12-18T04:25:45;31.80;;;11.33;;
68275;SDS011;55106;51.438;-0.098;2022-12-18T04:28:12;37.45;;;11.98;;
68275;SDS011;55106;51.438;-0.098;2022-12-18T04:30:37;33.90;;;11.87;;
68275;SDS011;55106;51.438;-0.098;2022-12-18T04:33:03;40.63;;;12.90;;
68275;SDS011;55106;51.438;-0.098;2022-12-18T04:35:28;31.23;;;11.90;;
68275;SDS011;55106;51.438;-0.098;2022-12-18T04:37:53;33.13;;;12.93;;
68275;SDS011;55106;51.438;-0.098;2022-12-18T04:40:19;34.23;;;11.90;;
68275;SDS011;55106;51.438;-0.098;2022-12-18T04:42:44;37.00;;;12.00;;
68275;SDS011;55106;51.438;-0.098;2022-12-18T04:45:09;39.17;;;12.57;;
68275;SDS011;55106;51.438;-0.098;2022-12-18T04:47:35;33.33;;;11.03;;
68275;SDS011;55106;51.438;-0.098;2022-12-18T04:50:00;36.60;;;12.20;;
68275;SDS011;55106;51.438;-0.098;2022-12-18T04:52:25;37.00;;;12.93;;
68275;SDS011;55106;51.438;-0.098;2022-12-18T04:54:51;36.72;;;12.23;;
68275;SDS011;55106;51.438;-0.098;2022-12-18T04:57:16;35.70;;;12.20;;
68275;SDS011;55106;51.438;-0.098;2022-12-18T04:59:43;33.10;;;12.23;;
68275;SDS011;55106;51.438;-0.098;2022-12-18T05:02:09;32.20;;;12.60;;
68275;SDS011;55106;51.438;-0.098;2022-12-18T05:04:34;40.50;;;14.17;;
68275;SDS011;55106;51.438;-0.098;2022-12-18T05:07:00;39.83;;;13.57;;
68275;SDS011;55106;51.438;-0.098;2022-12-18T05:09:25;41.97;;;14.13;;
68275;SDS011;55106;51.438;-0.098;2022-12-18T05:11:50;36.37;;;12.27;;
68275;SDS011;55106;51.438;-0.098;2022-12-18T05:14:16;41.00;;;13.60;;
68275;SDS011;55106;51.438;-0.098;2022-12-18T05:16:41;36.03;;;13.17;;
68275;SDS011;55106;51.438;-0.098;2022-12-18T05:19:06;42.47;;;13.53;;
68275;SDS011;55106;51.438;-0.098;2022-12-18T05:21:32;34.35;;;12.25;;
68275;SDS011;55106;51.438;-0.098;2022-12-18T05:23:57;36.23;;;11.67;;
68275;SDS011;55106;51.438;-0.098;2022-12-18T05:26:22;31.10;;;11.67;;
68275;SDS011;55106;51.438;-0.098;2022-12-18T05:28:48;39.17;;;14.13;;
68275;SDS011;55106;51.438;-0.098;2022-12-18T05:31:13;42.47;;;14.57;;
68275;SDS011;55106;51.438;-0.098;2022-12-18T05:33:39;41.10;;;13.60;;
68275;SDS011;55106;51.438;-0.098;2022-12-18T05:36:05;40.40;;;13.87;;
68275;SDS011;55106;51.438;-0.098;2022-12-18T05:38:33;30.50;;;11.35;;
68275;SDS011;55106;51.438;-0.098;2022-12-18T05:41:00;37.97;;;13.57;;
68275;SDS011;55106;51.438;-0.098;2022-12-18T05:43:25;31.40;;;12.23;;
68275;SDS011;55106;51.438;-0.098;2022-12-18T05:45:51;35.65;;;13.77;;
68275;SDS011;55106;51.438;-0.098;2022-12-18T05:48:17;34.47;;;13.38;;
68275;SDS011;55106;51.438;-0.098;2022-12-18T05:50:44;35.30;;;12.17;;
68275;SDS011;55106;51.438;-0.098;2022-12-18T05:53:11;33.13;;;12.60;;
68275;SDS011;55106;51.438;-0.098;2022-12-18T05:55:38;40.33;;;13.52;;
68275;SDS011;55106;51.438;-0.098;2022-12-18T05:58:05;37.30;;;13.95;;
68275;SDS011;55106;51.438;-0.098;2022-12-18T06:00:32;41.85;;;15.77;;
68275;SDS011;55106;51.438;-0.098;2022-12-18T06:02:59;40.40;;;13.03;;
68275;SDS011;55106;51.438;-0.098;2022-12-18T06:05:26;40.55;;;14.35;;
68275;SDS011;55106;51.438;-0.098;2022-12-18T06:07:51;42.47;;;14.98;;
68275;SDS011;55106;51.438;-0.098;2022-12-18T06:10:17;39.07;;;14.63;;
68275;SDS011;55106;51.438;-0.098;2022-12-18T06:12:42;32.97;;;13.20;;
68275;SDS011;55106;51.438;-0.098;2022-12-18T06:15:07;34.50;;;13.87;;
68275;SDS011;55106;51.438;-0.098;2022-12-18T06:17:33;39.33;;;15.88;;
68275;SDS011;55106;51.438;-0.098;2022-12-18T06:20:00;40.00;;;15.75;;
68275;SDS011;55106;51.438;-0.098;2022-12-18T06:22:26;40.97;;;14.87;;
68275;SDS011;55106;51.438;-0.098;2022-12-18T06:24:51;39.50;;;15.23;;
68275;SDS011;55106;51.438;-0.098;2022-12-18T06:27:17;41.57;;;14.50;;
68275;SDS011;55106;51.438;-0.098;2022-12-18T06:29:42;45.87;;;15.87;;
68275;SDS011;55106;51.438;-0.098;2022-12-18T06:32:08;43.03;;;14.33;;
68275;SDS011;55106;51.438;-0.098;2022-12-18T06:34:33;43.57;;;15.77;;
68275;SDS011;55106;51.438;-0.098;2022-12-18T06:36:59;34.28;;;13.38;;
68275;SDS011;55106;51.438;-0.098;2022-12-18T06:39:24;33.27;;;14.27;;
68275;SDS011;55106;51.438;-0.098;2022-12-18T06:41:52;43.72;;;15.02;;
68275;SDS011;55106;51.438;-0.098;2022-12-18T06:44:17;34.90;;;14.97;;
68275;SDS011;55106;51.438;-0.098;2022-12-18T06:46:43;41.20;;;15.23;;
68275;SDS011;55106;51.438;-0.098;2022-12-18T06:49:08;43.03;;;16.27;;
68275;SDS011;55106;51.438;-0.098;2022-12-18T06:51:34;34.40;;;15.23;;
68275;SDS011;55106;51.438;-0.098;2022-12-18T06:54:00;39.20;;;15.10;;
68275;SDS011;55106;51.438;-0.098;2022-12-18T06:56:25;34.67;;;13.47;;
68275;SDS011;55106;51.438;-0.098;2022-12-18T06:58:50;39.43;;;13.67;;
68275;SDS011;55106;51.438;-0.098;2022-12-18T07:01:16;40.07;;;14.43;;
68275;SDS011;55106;51.438;-0.098;2022-12-18T07:03:41;41.53;;;16.37;;
68275;SDS011;55106;51.438;-0.098;2022-12-18T07:06:12;42.25;;;15.98;;
68275;SDS011;55106;51.438;-0.098;2022-12-18T07:08:42;36.88;;;13.98;;
68275;SDS011;55106;51.438;-0.098;2022-12-18T07:11:08;33.63;;;13.93;;
68275;SDS011;55106;51.438;-0.098;2022-12-18T07:13:33;35.95;;;14.18;;
68275;SDS011;55106;51.438;-0.098;2022-12-18T07:16:09;38.17;;;14.53;;
68275;SDS011;55106;51.438;-0.098;2022-12-18T07:18:42;35.87;;;14.07;;
68275;SDS011;55106;51.438;-0.098;2022-12-18T07:21:09;38.40;;;15.25;;
68275;SDS011;55106;51.438;-0.098;2022-12-18T07:23:35;34.13;;;13.75;;
68275;SDS011;55106;51.438;-0.098;2022-12-18T07:26:05;34.43;;;12.83;;
68275;SDS011;55106;51.438;-0.098;2022-12-18T07:28:32;37.92;;;14.52;;
68275;SDS011;55106;51.438;-0.098;2022-12-18T07:31:18;36.60;;;14.50;;
68275;SDS011;55106;51.438;-0.098;2022-12-18T07:33:45;36.92;;;13.43;;
68275;SDS011;55106;51.438;-0.098;2022-12-18T07:36:11;30.37;;;11.57;;
68275;SDS011;55106;51.438;-0.098;2022-12-18T07:38:37;36.97;;;13.43;;
68275;SDS011;55106;51.438;-0.098;2022-12-18T07:41:03;35.70;;;13.53;;
68275;SDS011;55106;51.438;-0.098;2022-12-18T07:43:30;34.72;;;13.80;;
68275;SDS011;55106;51.438;-0.098;2022-12-18T07:45:55;25.27;;;12.07;;
68275;SDS011;55106;51.438;-0.098;2022-12-18T07:48:21;37.43;;;14.33;;
68275;SDS011;55106;51.438;-0.098;2022-12-18T07:50:46;37.83;;;14.47;;
68275;SDS011;55106;51.438;-0.098;2022-12-18T07:53:12;26.60;;;12.65;;
68275;SDS011;55106;51.438;-0.098;2022-12-18T07:55:39;41.33;;;14.13;;
68275;SDS011;55106;51.438;-0.098;2022-12-18T07:58:06;29.90;;;12.10;;
68275;SDS011;55106;51.438;-0.098;2022-12-18T08:00:32;31.90;;;13.77;;
68275;SDS011;55106;51.438;-0.098;2022-12-18T08:02:58;23.92;;;11.05;;
68275;SDS011;55106;51.438;-0.098;2022-12-18T08:05:23;32.40;;;11.47;;
68275;SDS011;55106;51.438;-0.098;2022-12-18T08:07:48;34.27;;;13.07;;
68275;SDS011;55106;51.438;-0.098;2022-12-18T08:10:14;39.30;;;15.10;;
68275;SDS011;55106;51.438;-0.098;2022-12-18T08:12:39;29.67;;;12.52;;
68275;SDS011;55106;51.438;-0.098;2022-12-18T08:15:05;34.50;;;13.97;;
68275;SDS011;55106;51.438;-0.098;2022-12-18T08:17:31;36.78;;;12.80;;
68275;SDS011;55106;51.438;-0.098;2022-12-18T08:19:56;34.20;;;14.17;;
68275;SDS011;55106;51.438;-0.098;2022-12-18T08:22:21;33.20;;;13.80;;
68275;SDS011;55106;51.438;-0.098;2022-12-18T08:24:47;34.87;;;12.37;;
68275;SDS011;55106;51.438;-0.098;2022-12-18T08:27:12;31.20;;;12.67;;
68275;SDS011;55106;51.438;-0.098;2022-12-18T08:29:38;35.83;;;13.60;;
68275;SDS011;55106;51.438;-0.098;2022-12-18T08:32:03;33.50;;;13.13;;
68275;SDS011;55106;51.438;-0.098;2022-12-18T08:34:29;33.40;;;14.10;;
68275;SDS011;55106;51.438;-0.098;2022-12-18T08:36:54;33.77;;;13.97;;
68275;SDS011;55106;51.438;-0.098;2022-12-18T08:39:19;37.80;;;13.63;;
68275;SDS011;55106;51.438;-0.098;2022-12-18T08:41:45;32.38;;;12.20;;
68275;SDS011;55106;51.438;-0.098;2022-12-18T08:44:30;35.50;;;13.63;;
68275;SDS011;55106;51.438;-0.098;2022-12-18T08:47:07;35.03;;;13.82;;
68275;SDS011;55106;51.438;-0.098;2022-12-18T08:49:33;32.28;;;12.98;;
68275;SDS011;55106;51.438;-0.098;2022-12-18T08:52:00;30.58;;;12.45;;
68275;SDS011;55106;51.438;-0.098;2022-12-18T08:54:26;33.45;;;12.40;;
68275;SDS011;55106;51.438;-0.098;2022-12-18T08:56:51;30.83;;;12.57;;
68275;SDS011;55106;51.438;-0.098;2022-12-18T08:59:17;30.30;;;12.10;;
68275;SDS011;55106;51.438;-0.098;2022-12-18T09:01:44;30.73;;;12.50;;
68275;SDS011;55106;51.438;-0.098;2022-12-18T09:04:10;39.10;;;13.97;;
68275;SDS011;55106;51.438;-0.098;2022-12-18T09:06:36;28.95;;;11.80;;
68275;SDS011;55106;51.438;-0.098;2022-12-18T09:09:02;32.75;;;12.68;;
68275;SDS011;55106;51.438;-0.098;2022-12-18T09:11:28;35.10;;;13.27;;
68275;SDS011;55106;51.438;-0.098;2022-12-18T09:13:54;35.83;;;13.85;;
68275;SDS011;55106;51.438;-0.098;2022-12-18T09:16:21;31.15;;;12.07;;
68275;SDS011;55106;51.438;-0.098;2022-12-18T09:18:47;29.58;;;13.38;;
68275;SDS011;55106;51.438;-0.098;2022-12-18T09:21:14;27.13;;;13.63;;
68275;SDS011;55106;51.438;-0.098;2022-12-18T09:23:43;34.13;;;14.15;;
68275;SDS011;55106;51.438;-0.098;2022-12-18T09:26:09;31.63;;;13.73;;
68275;SDS011;55106;51.438;-0.098;2022-12-18T09:28:35;31.83;;;13.17;;
68275;SDS011;55106;51.438;-0.098;2022-12-18T09:31:03;31.42;;;13.20;;
68275;SDS011;55106;51.438;-0.098;2022-12-18T09:33:33;33.20;;;12.30;;
68275;SDS011;55106;51.438;-0.098;2022-12-18T09:36:00;27.40;;;12.77;;
68275;SDS011;55106;51.438;-0.098;2022-12-18T09:38:28;28.25;;;13.40;;
68275;SDS011;55106;51.438;-0.098;2022-12-18T09:40:55;31.27;;;13.60;;
68275;SDS011;55106;51.438;-0.098;2022-12-18T09:45:55;33.10;;;12.85;;
68275;SDS011;55106;51.438;-0.098;2022-12-18T09:48:26;28.83;;;12.20;;
68275;SDS011;55106;51.438;-0.098;2022-12-18T09:50:58;30.70;;;11.57;;
68275;SDS011;55106;51.438;-0.098;2022-12-18T09:53:30;30.65;;;12.63;;
68275;SDS011;55106;51.438;-0.098;2022-12-18T09:55:59;29.20;;;12.18;;
68275;SDS011;55106;51.438;-0.098;2022-12-18T09:58:28;28.02;;;12.55;;
68275;SDS011;55106;51.438;-0.098;2022-12-18T10:00:55;28.48;;;12.60;;
68275;SDS011;55106;51.438;-0.098;2022-12-18T10:03:21;31.40;;;13.73;;
68275;SDS011;55106;51.438;-0.098;2022-12-18T10:16:47;31.63;;;12.50;;
68275;SDS011;55106;51.438;-0.098;2022-12-18T10:19:37;25.70;;;11.90;;
68275;SDS011;55106;51.438;-0.098;2022-12-18T10:25:15;29.57;;;12.00;;
68275;SDS011;55106;51.438;-0.098;2022-12-18T10:27:47;27.67;;;11.80;;
68275;SDS011;55106;51.438;-0.098;2022-12-18T10:30:19;32.47;;;13.25;;
68275;SDS011;55106;51.438;-0.098;2022-12-18T10:32:46;32.50;;;13.65;;
68275;SDS011;55106;51.438;-0.098;2022-12-18T10:35:21;30.90;;;12.87;;
68275;SDS011;55106;51.438;-0.098;2022-12-18T10:38:05;30.40;;;13.63;;
68275;SDS011;55106;51.438;-0.098;2022-12-18T10:40:47;31.67;;;13.75;;
68275;SDS011;55106;51.438;-0.098;2022-12-18T10:43:27;28.00;;;12.07;;
68275;SDS011;55106;51.438;-0.098;2022-12-18T10:45:59;30.52;;;14.50;;
68275;SDS011;55106;51.438;-0.098;2022-12-18T10:51:01;28.58;;;12.85;;
68275;SDS011;55106;51.438;-0.098;2022-12-18T10:53:29;32.17;;;13.65;;
68275;SDS011;55106;51.438;-0.098;2022-12-18T10:55:58;33.37;;;13.40;;
68275;SDS011;55106;51.438;-0.098;2022-12-18T10:58:30;31.50;;;12.73;;
68275;SDS011;55106;51.438;-0.098;2022-12-18T11:08:32;32.70;;;12.30;;
68275;SDS011;55106;51.438;-0.098;2022-12-18T11:10:58;27.58;;;12.57;;
68275;SDS011;55106;51.438;-0.098;2022-12-18T11:13:24;25.17;;;11.67;;
68275;SDS011;55106;51.438;-0.098;2022-12-18T11:15:52;27.67;;;12.77;;
68275;SDS011;55106;51.438;-0.098;2022-12-18T11:21:07;27.55;;;12.77;;
68275;SDS011;55106;51.438;-0.098;2022-12-18T11:23:34;30.30;;;12.27;;
68275;SDS011;55106;51.438;-0.098;2022-12-18T11:26:03;26.05;;;12.75;;
68275;SDS011;55106;51.438;-0.098;2022-12-18T11:28:38;29.33;;;13.47;;
68275;SDS011;55106;51.438;-0.098;2022-12-18T11:36:26;29.33;;;13.00;;
68275;SDS011;55106;51.438;-0.098;2022-12-18T11:38:59;29.48;;;14.43;;
68275;SDS011;55106;51.438;-0.098;2022-12-18T11:41:42;37.10;;;15.37;;
68275;SDS011;55106;51.438;-0.098;2022-12-18T11:44:35;30.23;;;13.45;;
68275;SDS011;55106;51.438;-0.098;2022-12-18T11:47:19;31.88;;;14.38;;
68275;SDS011;55106;51.438;-0.098;2022-12-18T11:49:50;26.42;;;13.15;;
68275;SDS011;55106;51.438;-0.098;2022-12-18T11:52:34;35.63;;;14.13;;
68275;SDS011;55106;51.438;-0.098;2022-12-18T11:55:13;35.83;;;14.90;;
68275;SDS011;55106;51.438;-0.098;2022-12-18T12:00:25;28.80;;;13.48;;
68275;SDS011;55106;51.438;-0.098;2022-12-18T12:16:50;36.60;;;14.97;;
68275;SDS011;55106;51.438;-0.098;2022-12-18T12:24:53;41.83;;;16.57;;
68275;SDS011;55106;51.438;-0.098;2022-12-18T12:32:50;31.77;;;14.20;;
68275;SDS011;55106;51.438;-0.098;2022-12-18T12:38:12;30.95;;;13.23;;
68275;SDS011;55106;51.438;-0.098;2022-12-18T12:40:53;30.77;;;14.68;;
68275;SDS011;55106;51.438;-0.098;2022-12-18T12:46:06;31.90;;;13.17;;
68275;SDS011;55106;51.438;-0.098;2022-12-18T12:48:43;30.30;;;13.23;;
68275;SDS011;55106;51.438;-0.098;2022-12-18T12:53:48;27.52;;;12.52;;
68275;SDS011;55106;51.438;-0.098;2022-12-18T12:56:15;36.25;;;15.55;;
68275;SDS011;55106;51.438;-0.098;2022-12-18T12:58:49;33.07;;;14.97;;
68275;SDS011;55106;51.438;-0.098;2022-12-18T13:04:05;24.90;;;12.00;;
68275;SDS011;55106;51.438;-0.098;2022-12-18T13:06:54;33.55;;;15.25;;
68275;SDS011;55106;51.438;-0.098;2022-12-18T13:09:23;36.33;;;15.68;;
68275;SDS011;55106;51.438;-0.098;2022-12-18T13:11:49;28.43;;;12.93;;
68275;SDS011;55106;51.438;-0.098;2022-12-18T13:17:22;26.33;;;11.60;;
68275;SDS011;55106;51.438;-0.098;2022-12-18T13:20:04;24.45;;;11.13;;
68275;SDS011;55106;51.438;-0.098;2022-12-18T13:22:34;29.57;;;13.67;;
68275;SDS011;55106;51.438;-0.098;2022-12-18T13:25:01;28.55;;;13.70;;
68275;SDS011;55106;51.438;-0.098;2022-12-18T13:36:02;23.40;;;10.57;;
68275;SDS011;55106;51.438;-0.098;2022-12-18T13:38:35;25.85;;;12.25;;
68275;SDS011;55106;51.438;-0.098;2022-12-18T13:41:02;26.42;;;11.52;;
68275;SDS011;55106;51.438;-0.098;2022-12-18T13:43:33;25.80;;;11.55;;
68275;SDS011;55106;51.438;-0.098;2022-12-18T13:48:41;28.57;;;12.60;;
68275;SDS011;55106;51.438;-0.098;2022-12-18T13:51:22;29.25;;;11.27;;
68275;SDS011;55106;51.438;-0.098;2022-12-18T13:53:53;25.02;;;11.32;;
68275;SDS011;55106;51.438;-0.098;2022-12-18T13:56:23;23.50;;;11.43;;
68275;SDS011;55106;51.438;-0.098;2022-12-18T14:01:36;24.43;;;11.47;;
68275;SDS011;55106;51.438;-0.098;2022-12-18T14:04:09;22.98;;;11.88;;
68275;SDS011;55106;51.438;-0.098;2022-12-18T14:06:36;27.38;;;10.02;;
68275;SDS011;55106;51.438;-0.098;2022-12-18T14:09:02;23.47;;;10.83;;
68275;SDS011;55106;51.438;-0.098;2022-12-18T14:11:27;21.88;;;10.48;;
68275;SDS011;55106;51.438;-0.098;2022-12-18T14:13:53;20.20;;;9.03;;
68275;SDS011;55106;51.438;-0.098;2022-12-18T14:16:18;25.77;;;11.47;;
68275;SDS011;55106;51.438;-0.098;2022-12-18T14:18:45;24.57;;;10.87;;
68275;SDS011;55106;51.438;-0.098;2022-12-18T14:21:25;24.38;;;10.50;;
68275;SDS011;55106;51.438;-0.098;2022-12-18T14:26:40;17.33;;;8.50;;
68275;SDS011;55106;51.438;-0.098;2022-12-18T14:34:42;23.50;;;10.88;;
68275;SDS011;55106;51.438;-0.098;2022-12-18T14:37:09;21.02;;;10.20;;
68275;SDS011;55106;51.438;-0.098;2022-12-18T14:39:36;25.93;;;10.50;;
68275;SDS011;55106;51.438;-0.098;2022-12-18T14:42:01;22.20;;;10.38;;
68275;SDS011;55106;51.438;-0.098;2022-12-18T14:44:26;24.53;;;11.03;;
68275;SDS011;55106;51.438;-0.098;2022-12-18T14:46:52;22.87;;;10.70;;
68275;SDS011;55106;51.438;-0.098;2022-12-18T14:51:47;21.90;;;9.90;;
68275;SDS011;55106;51.438;-0.098;2022-12-18T14:54:15;21.50;;;10.13;;
68275;SDS011;55106;51.438;-0.098;2022-12-18T14:56:43;24.52;;;10.70;;
68275;SDS011;55106;51.438;-0.098;2022-12-18T14:59:19;22.20;;;10.40;;
68275;SDS011;55106;51.438;-0.098;2022-12-18T15:04:44;24.65;;;10.23;;
68275;SDS011;55106;51.438;-0.098;2022-12-18T15:09:36;23.77;;;10.60;;
68275;SDS011;55106;51.438;-0.098;2022-12-18T15:12:02;21.75;;;9.40;;
68275;SDS011;55106;51.438;-0.098;2022-12-18T15:17:14;20.80;;;10.25;;
68275;SDS011;55106;51.438;-0.098;2022-12-18T15:19:43;18.58;;;9.52;;
68275;SDS011;55106;51.438;-0.098;2022-12-18T15:22:28;19.47;;;10.33;;
68275;SDS011;55106;51.438;-0.098;2022-12-18T15:25:00;20.05;;;9.38;;
68275;SDS011;55106;51.438;-0.098;2022-12-18T15:27:30;23.00;;;9.35;;
68275;SDS011;55106;51.438;-0.098;2022-12-18T15:30:16;22.65;;;10.15;;
68275;SDS011;55106;51.438;-0.098;2022-12-18T15:32:43;18.42;;;8.57;;
68275;SDS011;55106;51.438;-0.098;2022-12-18T15:35:20;17.03;;;8.10;;
68275;SDS011;55106;51.438;-0.098;2022-12-18T15:37:48;18.02;;;8.77;;
68275;SDS011;55106;51.438;-0.098;2022-12-18T15:40:15;21.90;;;9.77;;
68275;SDS011;55106;51.438;-0.098;2022-12-18T15:42:43;16.65;;;7.18;;
68275;SDS011;55106;51.438;-0.098;2022-12-18T15:45:28;18.00;;;9.15;;
68275;SDS011;55106;51.438;-0.098;2022-12-18T15:47:53;18.67;;;7.67;;
68275;SDS011;55106;51.438;-0.098;2022-12-18T15:50:19;16.38;;;8.88;;
68275;SDS011;55106;51.438;-0.098;2022-12-18T15:52:45;19.03;;;7.87;;
68275;SDS011;55106;51.438;-0.098;2022-12-18T15:55:13;18.05;;;7.95;;
68275;SDS011;55106;51.438;-0.098;2022-12-18T15:57:59;16.07;;;7.00;;
68275;SDS011;55106;51.438;-0.098;2022-12-18T16:00:24;18.02;;;8.68;;
68275;SDS011;55106;51.438;-0.098;2022-12-18T16:02:50;17.63;;;8.07;;
68275;SDS011;55106;51.438;-0.098;2022-12-18T16:05:16;15.15;;;7.72;;
68275;SDS011;55106;51.438;-0.098;2022-12-18T16:07:43;17.83;;;8.80;;
68275;SDS011;55106;51.438;-0.098;2022-12-18T16:10:09;17.70;;;8.32;;
68275;SDS011;55106;51.438;-0.098;2022-12-18T16:12:35;19.00;;;7.93;;
68275;SDS011;55106;51.438;-0.098;2022-12-18T16:15:01;14.07;;;7.93;;
68275;SDS011;55106;51.438;-0.098;2022-12-18T16:17:27;14.33;;;7.30;;
68275;SDS011;55106;51.438;-0.098;2022-12-18T16:19:52;15.53;;;7.20;;
68275;SDS011;55106;51.438;-0.098;2022-12-18T16:22:25;16.63;;;8.00;;
68275;SDS011;55106;51.438;-0.098;2022-12-18T16:24:52;15.40;;;7.25;;
68275;SDS011;55106;51.438;-0.098;2022-12-18T16:27:19;14.27;;;6.28;;
68275;SDS011;55106;51.438;-0.098;2022-12-18T16:29:44;16.07;;;7.30;;
68275;SDS011;55106;51.438;-0.098;2022-12-18T16:32:11;15.40;;;7.43;;
68275;SDS011;55106;51.438;-0.098;2022-12-18T16:34:39;11.82;;;5.50;;
68275;SDS011;55106;51.438;-0.098;2022-12-18T16:37:05;10.40;;;4.97;;